createdAt,value
2022-11-15T00:01:17.868Z,4.50
2022-11-15T00:03:46.294Z,4.70
2022-11-15T00:06:14.369Z,3.90
2022-11-15T00:08:42.267Z,3.63
2022-11-15T00:11:12.786Z,3.70
2022-11-15T00:13:41.992Z,3.10
2022-11-15T00:16:11.473Z,3.23
2022-11-15T00:18:40.257Z,3.33
2022-11-15T00:21:10.153Z,3.30
2022-11-15T00:23:38.195Z,3.03
2022-11-15T00:26:06.387Z,2.67
2022-11-15T00:28:34.459Z,2.50
2022-11-15T00:31:04.380Z,3.13
2022-11-15T00:33:33.321Z,4.60
2022-11-15T00:36:05.548Z,3.60
2022-11-15T00:38:34.830Z,3.70
2022-11-15T00:41:09.157Z,4.07
2022-11-15T00:43:38.078Z,3.60
2022-11-15T00:46:09.081Z,4.47
2022-11-15T00:48:36.907Z,4.00
2022-11-15T00:51:04.864Z,4.60
2022-11-15T00:53:33.104Z,4.70
2022-11-15T00:56:01.178Z,4.80
2022-11-15T00:58:29.069Z,4.80
2022-11-15T01:00:56.980Z,4.17
2022-11-15T01:03:26.175Z,4.03
2022-11-15T01:05:54.051Z,4.13
2022-11-15T01:08:21.919Z,3.87
2022-11-15T01:10:49.731Z,4.20
2022-11-15T01:13:17.577Z,4.00
2022-11-15T01:15:45.515Z,3.93
2022-11-15T01:18:13.439Z,4.20
2022-11-15T01:20:43.691Z,4.40
2022-11-15T01:23:12.265Z,3.77
2022-11-15T01:25:40.201Z,4.30
2022-11-15T01:28:08.058Z,4.13
2022-11-15T01:30:37.592Z,3.67
2022-11-15T01:33:05.453Z,3.47
2022-11-15T01:35:33.508Z,3.73
2022-11-15T01:38:02.682Z,3.50
2022-11-15T01:40:30.522Z,3.40
2022-11-15T01:42:58.336Z,2.90
2022-11-15T01:45:26.266Z,2.77
2022-11-15T01:47:56.371Z,2.90
2022-11-15T01:50:31.441Z,3.00
2022-11-15T01:52:59.311Z,3.30
2022-11-15T01:55:30.177Z,3.00
2022-11-15T01:58:01.787Z,2.90
2022-11-15T02:00:31.141Z,2.67
2022-11-15T02:02:59.362Z,2.20
2022-11-15T02:05:27.620Z,2.40
2022-11-15T02:07:56.300Z,2.10
2022-11-15T02:10:25.857Z,2.10
2022-11-15T02:12:56.390Z,1.83
2022-11-15T02:15:28.998Z,2.07
2022-11-15T02:18:17.686Z,2.07
2022-11-15T02:20:58.208Z,1.87
2022-11-15T02:23:56.457Z,2.10
2022-11-15T02:26:50.559Z,1.93
2022-11-15T02:29:31.594Z,1.40
2022-11-15T02:32:08.586Z,1.60
2022-11-15T02:34:45.296Z,1.50
2022-11-15T02:37:19.271Z,1.30
2022-11-15T02:39:53.502Z,1.50
2022-11-15T02:42:45.946Z,1.60
2022-11-15T02:45:18.994Z,1.70
2022-11-15T02:47:52.294Z,1.37
2022-11-15T02:50:23.368Z,1.70
2022-11-15T02:52:51.852Z,1.50
2022-11-15T02:55:31.605Z,1.60
2022-11-15T02:58:21.081Z,1.40
2022-11-15T03:00:56.291Z,1.23
2022-11-15T03:03:44.476Z,1.37
2022-11-15T03:06:25.708Z,1.33
2022-11-15T03:09:03.493Z,1.40
2022-11-15T03:11:35.321Z,1.20
2022-11-15T03:14:10.434Z,1.30
2022-11-15T03:16:42.226Z,1.50
2022-11-15T03:19:15.862Z,1.40
2022-11-15T03:21:44.004Z,2.07
2022-11-15T03:24:14.317Z,1.80
2022-11-15T03:26:45.878Z,1.30
2022-11-15T03:29:16.654Z,1.40
2022-11-15T03:31:51.104Z,1.30
2022-11-15T03:34:29.769Z,1.37
2022-11-15T03:36:58.139Z,1.30
2022-11-15T03:39:26.787Z,1.60
2022-11-15T03:42:05.183Z,1.43
2022-11-15T03:44:41.120Z,1.33
2022-11-15T03:47:11.988Z,1.60
2022-11-15T03:49:45.980Z,1.40
2022-11-15T03:52:14.064Z,1.20
2022-11-15T03:54:50.428Z,1.60
2022-11-15T03:57:18.734Z,1.60
2022-11-15T03:59:46.593Z,1.70
2022-11-15T04:02:14.992Z,1.60
2022-11-15T04:04:44.200Z,1.47
2022-11-15T04:07:12.142Z,1.50
2022-11-15T04:10:00.779Z,1.80
2022-11-15T04:12:32.549Z,1.60
2022-11-15T04:15:11.055Z,1.53
2022-11-15T04:17:41.304Z,1.70
2022-11-15T04:20:39.810Z,1.60
2022-11-15T04:23:28.312Z,1.47
2022-11-15T04:25:58.199Z,1.50
2022-11-15T04:28:26.178Z,1.70
2022-11-15T04:30:54.174Z,1.60
2022-11-15T04:33:22.103Z,1.50
2022-11-15T04:36:05.355Z,1.60
2022-11-15T04:38:33.375Z,1.70
2022-11-15T04:41:01.203Z,1.57
2022-11-15T04:43:29.753Z,2.67
2022-11-15T04:45:57.764Z,2.20
2022-11-15T04:48:25.664Z,1.73
2022-11-15T04:50:54.843Z,1.67
2022-11-15T04:53:22.726Z,2.00
2022-11-15T04:55:50.578Z,2.10
2022-11-15T04:58:18.450Z,1.90
2022-11-15T05:00:46.360Z,2.10
2022-11-15T05:03:31.801Z,1.87
2022-11-15T05:06:01.261Z,2.10
2022-11-15T05:08:29.305Z,1.90
2022-11-15T05:10:57.137Z,2.13
2022-11-15T05:13:25.032Z,2.10
2022-11-15T05:15:52.855Z,3.37
2022-11-15T05:18:23.503Z,6.17
2022-11-15T05:20:51.815Z,27.87
2022-11-15T05:23:21.023Z,6.97
2022-11-15T05:25:48.854Z,3.03
2022-11-15T05:28:16.719Z,4.50
2022-11-15T05:30:44.704Z,3.20
2022-11-15T05:33:12.814Z,3.60
2022-11-15T05:35:43.619Z,4.07
2022-11-15T05:38:11.487Z,3.20
2022-11-15T05:40:40.681Z,3.27
2022-11-15T05:43:08.655Z,3.27
2022-11-15T05:45:38.107Z,3.80
2022-11-15T05:48:13.339Z,5.97
2022-11-15T05:50:45.442Z,5.73
2022-11-15T05:53:15.811Z,5.90
2022-11-15T05:55:45.120Z,5.40
2022-11-15T05:58:13.186Z,5.47
2022-11-15T06:00:41.324Z,10.23
2022-11-15T06:03:09.196Z,9.03
2022-11-15T06:05:37.067Z,6.37
2022-11-15T06:08:05.180Z,5.43
2022-11-15T06:10:33.029Z,5.23
2022-11-15T06:13:03.315Z,4.20
2022-11-15T06:15:31.192Z,4.80
2022-11-15T06:17:59.501Z,4.07
2022-11-15T06:20:27.842Z,4.43
2022-11-15T06:22:59.153Z,4.27
2022-11-15T06:25:27.446Z,4.00
2022-11-15T06:27:56.292Z,4.17
2022-11-15T06:30:26.663Z,3.80
2022-11-15T06:33:00.858Z,4.13
2022-11-15T06:35:28.753Z,3.90
2022-11-15T06:37:56.693Z,3.80
2022-11-15T06:40:24.579Z,11.40
2022-11-15T06:42:52.411Z,13.07
2022-11-15T06:45:20.284Z,4.67
2022-11-15T06:47:49.651Z,2.70
2022-11-15T06:50:17.650Z,2.77
2022-11-15T06:52:45.637Z,3.43
2022-11-15T06:55:13.526Z,2.67
2022-11-15T06:57:49.012Z,3.43
2022-11-15T07:00:18.664Z,3.07
2022-11-15T07:02:46.505Z,2.90
2022-11-15T07:05:16.445Z,2.53
2022-11-15T07:07:44.282Z,2.80
2022-11-15T07:10:12.266Z,2.77
2022-11-15T07:12:40.121Z,4.30
2022-11-15T07:15:09.292Z,2.57
2022-11-15T07:17:37.183Z,3.67
2022-11-15T07:20:05.766Z,3.43
2022-11-15T07:22:35.016Z,3.03
2022-11-15T07:25:02.892Z,3.03
2022-11-15T07:27:31.080Z,2.97
2022-11-15T07:29:59.007Z,3.13
2022-11-15T07:32:27.309Z,2.93
2022-11-15T07:34:55.182Z,6.57
2022-11-15T07:37:23.247Z,3.63
2022-11-15T07:39:52.496Z,2.97
2022-11-15T07:42:37.991Z,2.53
2022-11-15T07:45:06.687Z,3.00
2022-11-15T07:47:34.908Z,3.60
2022-11-15T07:50:02.841Z,3.17
2022-11-15T07:52:30.700Z,4.00
2022-11-15T07:54:59.959Z,3.70
2022-11-15T07:57:27.830Z,3.00
2022-11-15T07:59:55.685Z,3.47
2022-11-15T08:02:27.722Z,3.40
2022-11-15T08:04:58.084Z,3.20
2022-11-15T08:07:25.962Z,3.60
2022-11-15T08:09:53.905Z,4.87
2022-11-15T08:12:23.480Z,4.80
2022-11-15T08:14:51.694Z,4.43
2022-11-15T08:17:19.524Z,4.13
2022-11-15T08:19:47.487Z,3.70
2022-11-15T08:22:15.531Z,4.10
2022-11-15T08:24:43.399Z,2.87
2022-11-15T08:27:15.824Z,3.10
2022-11-15T08:29:46.543Z,2.90
2022-11-15T08:32:14.441Z,2.93
2022-11-15T08:34:42.402Z,3.20
2022-11-15T08:37:10.600Z,5.40
2022-11-15T08:39:38.843Z,6.57
2022-11-15T08:42:06.829Z,3.03
2022-11-15T08:44:34.706Z,2.83
2022-11-15T08:47:03.956Z,2.70
2022-11-15T08:49:31.835Z,2.50
2022-11-15T08:51:59.698Z,2.73
2022-11-15T08:54:27.622Z,2.97
2022-11-15T08:56:55.463Z,3.00
2022-11-15T08:59:23.478Z,3.40
2022-11-15T09:01:51.459Z,3.10
2022-11-15T09:04:20.977Z,3.77
2022-11-15T09:06:48.866Z,3.83
2022-11-15T09:09:16.907Z,3.27
2022-11-15T09:11:44.776Z,3.20
2022-11-15T09:14:13.318Z,2.83
2022-11-15T09:16:41.303Z,2.80
2022-11-15T09:19:11.892Z,3.40
2022-11-15T09:21:41.344Z,2.97
2022-11-15T09:24:09.561Z,2.97
2022-11-15T09:26:37.677Z,3.50
2022-11-15T09:29:05.620Z,3.40
2022-11-15T09:31:33.853Z,3.80
2022-11-15T09:34:01.812Z,3.20
2022-11-15T09:36:29.685Z,3.30
2022-11-15T09:38:59.720Z,2.63
2022-11-15T09:41:59.967Z,3.10
2022-11-15T09:44:44.729Z,2.73
2022-11-15T09:47:37.012Z,2.67
2022-11-15T09:50:13.127Z,2.57
2022-11-15T09:52:46.014Z,3.00
2022-11-15T09:55:22.309Z,2.70
2022-11-15T09:57:56.711Z,2.63
2022-11-15T10:00:48.751Z,2.57
2022-11-15T10:03:20.077Z,2.50
2022-11-15T10:05:49.715Z,3.27
2022-11-15T10:08:33.773Z,3.43
2022-11-15T10:11:35.660Z,3.20
2022-11-15T10:13:55.763Z,3.10
2022-11-15T10:16:42.564Z,3.00
2022-11-15T10:19:21.852Z,3.03
2022-11-15T10:22:13.567Z,3.00
2022-11-15T10:24:45.770Z,2.63
2022-11-15T10:27:17.100Z,3.10
2022-11-15T10:29:46.305Z,3.13
2022-11-15T10:32:16.246Z,3.27
2022-11-15T10:34:44.236Z,3.27
2022-11-15T10:37:12.104Z,3.00
2022-11-15T10:39:39.998Z,3.33
2022-11-15T10:42:27.079Z,3.20
2022-11-15T10:44:55.151Z,3.30
2022-11-15T10:47:26.556Z,3.00
2022-11-15T10:50:06.949Z,3.50
2022-11-15T10:52:37.559Z,4.00
2022-11-15T10:55:22.877Z,3.27
2022-11-15T10:57:54.200Z,4.30
2022-11-15T11:00:34.971Z,3.17
2022-11-15T11:03:04.855Z,3.17
2022-11-15T11:05:41.392Z,2.73
2022-11-15T11:08:24.237Z,2.60
2022-11-15T11:11:01.335Z,3.33
2022-11-15T11:13:33.372Z,3.03
2022-11-15T11:16:38.851Z,3.20
2022-11-15T11:19:19.767Z,2.43
2022-11-15T11:21:53.147Z,2.83
2022-11-15T11:24:30.356Z,2.60
2022-11-15T11:27:14.893Z,3.30
2022-11-15T11:30:01.347Z,2.90
2022-11-15T11:32:40.673Z,3.53
2022-11-15T11:35:14.725Z,3.67
2022-11-15T11:37:48.264Z,5.87
2022-11-15T11:40:27.962Z,4.80
2022-11-15T11:43:00.428Z,3.47
2022-11-15T11:45:50.673Z,3.20
2022-11-15T11:48:30.099Z,2.93
2022-11-15T11:51:03.885Z,2.83
2022-11-15T11:53:37.476Z,2.63
2022-11-15T11:56:13.794Z,3.20
2022-11-15T11:58:45.504Z,2.73
2022-11-15T12:01:19.740Z,2.87
2022-11-15T12:03:53.044Z,3.03
2022-11-15T12:06:29.159Z,3.00
2022-11-15T12:09:03.125Z,3.97
2022-11-15T12:11:38.357Z,3.87
2022-11-15T12:14:14.582Z,3.60
2022-11-15T12:16:44.979Z,3.43
2022-11-15T12:19:12.895Z,3.67
2022-11-15T12:21:47.363Z,3.30
2022-11-15T12:24:19.835Z,3.23
2022-11-15T12:26:51.891Z,2.80
2022-11-15T12:29:25.775Z,2.40
2022-11-15T12:32:00.825Z,2.00
2022-11-15T12:34:40.023Z,2.20
2022-11-15T12:37:56.999Z,1.80
2022-11-15T12:40:30.880Z,2.00
2022-11-15T12:43:01.888Z,2.13
2022-11-15T12:45:32.190Z,2.10
2022-11-15T12:48:33.868Z,1.87
2022-11-15T12:51:03.821Z,1.60
2022-11-15T12:53:33.786Z,1.80
2022-11-15T12:56:20.666Z,2.10
2022-11-15T12:58:50.302Z,1.80
2022-11-15T13:01:56.153Z,3.20
2022-11-15T13:04:27.175Z,3.50
2022-11-15T13:06:58.327Z,2.37
2022-11-15T13:10:05.686Z,2.30
2022-11-15T13:12:53.868Z,2.23
2022-11-15T13:15:42.469Z,2.03
2022-11-15T13:18:33.970Z,2.00
2022-11-15T13:21:23.344Z,2.20
2022-11-15T13:23:56.038Z,2.50
2022-11-15T13:26:24.537Z,2.53
2022-11-15T13:28:56.309Z,1.80
2022-11-15T13:31:28.150Z,2.30
2022-11-15T13:33:59.080Z,2.30
2022-11-15T13:36:29.701Z,2.20
2022-11-15T13:39:00.897Z,2.20
2022-11-15T13:41:31.108Z,2.10
2022-11-15T13:44:00.027Z,2.27
2022-11-15T13:46:29.991Z,1.93
2022-11-15T13:49:00.127Z,1.87
2022-11-15T13:51:39.029Z,2.23
2022-11-15T13:54:27.340Z,2.40
2022-11-15T13:56:59.005Z,1.80
2022-11-15T13:59:28.501Z,2.10
2022-11-15T14:01:57.517Z,2.10
2022-11-15T14:04:30.565Z,1.90
2022-11-15T14:07:00.422Z,1.90
2022-11-15T14:09:36.040Z,2.17
2022-11-15T14:12:23.715Z,1.70
2022-11-15T14:14:51.622Z,1.67
2022-11-15T14:17:24.501Z,1.90
2022-11-15T14:19:53.184Z,1.97
2022-11-15T14:22:23.519Z,1.73
2022-11-15T14:28:16.245Z,2.13
2022-11-15T14:30:47.258Z,1.93
2022-11-15T14:33:27.096Z,2.10
2022-11-15T14:35:56.239Z,2.40
2022-11-15T14:38:24.109Z,1.93
2022-11-15T14:40:52.270Z,2.00
2022-11-15T14:43:21.548Z,2.23
2022-11-15T14:45:49.537Z,3.00
2022-11-15T14:48:17.603Z,2.77
2022-11-15T14:50:46.475Z,2.27
2022-11-15T14:53:17.140Z,1.67
2022-11-15T14:55:45.429Z,1.87
2022-11-15T14:58:13.569Z,1.80
2022-11-15T15:00:43.529Z,1.73
2022-11-15T15:03:11.860Z,2.07
2022-11-15T15:05:42.412Z,1.73
2022-11-15T15:08:11.279Z,1.83
2022-11-15T15:10:42.173Z,2.70
2022-11-15T15:13:18.024Z,5.67
2022-11-15T15:15:47.691Z,5.07
2022-11-15T15:18:16.324Z,4.27
2022-11-15T15:20:46.508Z,2.37
2022-11-15T15:23:18.554Z,2.70
2022-11-15T15:25:47.451Z,2.80
2022-11-15T15:28:15.694Z,3.93
2022-11-15T15:30:43.618Z,2.80
2022-11-15T15:33:12.852Z,2.90
2022-11-15T15:35:40.771Z,2.07
2022-11-15T15:38:10.510Z,3.03
2022-11-15T15:40:38.354Z,2.73
2022-11-15T15:43:09.767Z,2.70
2022-11-15T15:45:40.103Z,2.80
2022-11-15T15:48:08.000Z,2.43
2022-11-15T15:50:37.580Z,2.30
2022-11-15T15:53:06.519Z,2.50
2022-11-15T15:55:34.509Z,2.80
2022-11-15T15:58:02.440Z,2.97
2022-11-15T16:00:30.371Z,2.73
2022-11-15T16:02:59.376Z,2.70
2022-11-15T16:05:27.339Z,2.70
2022-11-15T16:07:56.533Z,3.07
2022-11-15T16:10:26.888Z,4.37
2022-11-15T16:12:55.786Z,4.40
2022-11-15T16:15:25.518Z,4.87
2022-11-15T16:17:54.750Z,4.53
2022-11-15T16:20:36.508Z,4.13
2022-11-15T16:23:09.429Z,4.40
2022-11-15T16:25:42.885Z,3.80
2022-11-15T16:28:20.613Z,10.63
2022-11-15T16:30:52.460Z,5.70
2022-11-15T16:33:24.869Z,4.83
2022-11-15T16:35:53.120Z,8.43
2022-11-15T16:38:22.373Z,6.77
2022-11-15T16:40:50.358Z,5.87
2022-11-15T16:43:18.303Z,7.80
2022-11-15T16:45:46.249Z,6.90
2022-11-15T16:48:25.141Z,7.00
2022-11-15T16:50:56.074Z,5.27
2022-11-15T16:53:25.702Z,5.57
2022-11-15T16:55:53.878Z,26.43
2022-11-15T16:58:21.814Z,9.07
2022-11-15T17:00:52.524Z,4.90
2022-11-15T17:03:21.008Z,6.13
2022-11-15T17:05:48.879Z,6.00
2022-11-15T17:08:16.871Z,5.83
2022-11-15T17:10:46.071Z,4.63
2022-11-15T17:13:14.769Z,5.03
2022-11-15T17:15:42.675Z,5.13
2022-11-15T17:18:12.954Z,4.37
2022-11-15T17:20:42.625Z,5.40
2022-11-15T17:23:14.485Z,5.73
2022-11-15T17:25:42.679Z,5.37
2022-11-15T17:28:12.291Z,6.73
2022-11-15T17:30:43.090Z,22.90
2022-11-15T17:33:11.039Z,10.67
2022-11-15T17:35:38.903Z,4.97
2022-11-15T17:38:06.763Z,3.70
2022-11-15T17:40:34.667Z,3.83
2022-11-15T17:43:02.564Z,4.70
2022-11-15T17:45:31.785Z,4.87
2022-11-15T17:47:59.663Z,4.63
2022-11-15T17:50:27.490Z,4.50
2022-11-15T17:52:55.330Z,4.30
2022-11-15T17:55:23.214Z,4.43
2022-11-15T17:57:51.095Z,10.63
2022-11-15T18:00:21.606Z,5.07
2022-11-15T18:02:50.808Z,4.90
2022-11-15T18:05:18.638Z,4.90
2022-11-15T18:07:46.552Z,3.87
2022-11-15T18:10:14.462Z,4.57
2022-11-15T18:12:42.320Z,4.50
2022-11-15T18:15:10.629Z,4.60
2022-11-15T18:17:38.529Z,4.50
2022-11-15T18:20:10.120Z,4.23
2022-11-15T18:22:37.986Z,5.37
2022-11-15T18:25:06.532Z,5.10
2022-11-15T18:27:34.437Z,4.60
2022-11-15T18:30:02.302Z,4.20
2022-11-15T18:32:31.387Z,5.10
2022-11-15T18:34:59.272Z,4.93
2022-11-15T18:37:28.503Z,5.23
2022-11-15T18:39:56.408Z,4.87
2022-11-15T18:42:24.326Z,4.80
2022-11-15T18:44:52.202Z,4.33
2022-11-15T18:47:20.082Z,5.27
2022-11-15T18:49:48.210Z,5.10
2022-11-15T18:52:16.084Z,4.73
2022-11-15T18:54:45.399Z,7.50
2022-11-15T18:57:13.237Z,7.23
2022-11-15T18:59:41.107Z,6.63
2022-11-15T19:02:12.612Z,5.30
2022-11-15T19:04:40.463Z,4.63
2022-11-15T19:07:08.378Z,4.97
2022-11-15T19:09:36.245Z,4.47
2022-11-15T19:12:05.970Z,4.20
2022-11-15T19:14:33.821Z,3.77
2022-11-15T19:17:01.762Z,4.20
2022-11-15T19:19:30.462Z,4.60
2022-11-15T19:21:58.500Z,4.90
2022-11-15T19:24:27.227Z,4.53
2022-11-15T19:26:55.831Z,6.10
2022-11-15T19:29:25.092Z,7.17
2022-11-15T19:31:53.027Z,11.40
2022-11-15T19:34:20.860Z,8.17
2022-11-15T19:36:48.867Z,7.27
2022-11-15T19:39:18.365Z,6.20
2022-11-15T19:41:46.504Z,6.00
2022-11-15T19:44:15.202Z,6.13
2022-11-15T19:46:45.248Z,6.03
2022-11-15T19:49:13.181Z,6.53
2022-11-15T19:51:44.967Z,8.00
2022-11-15T19:54:13.555Z,10.23
2022-11-15T19:56:41.468Z,7.17
2022-11-15T19:59:11.454Z,6.50
2022-11-15T20:01:39.711Z,6.37
2022-11-15T20:04:09.959Z,7.00
2022-11-15T20:06:40.242Z,6.40
2022-11-15T20:09:08.114Z,6.87
2022-11-15T20:11:37.928Z,5.37
2022-11-15T20:14:06.578Z,4.97
2022-11-15T20:16:34.484Z,4.77
2022-11-15T20:19:02.526Z,5.63
2022-11-15T20:21:31.752Z,4.93
2022-11-15T20:23:59.771Z,5.13
2022-11-15T20:26:27.647Z,4.60
2022-11-15T20:29:00.953Z,4.67
2022-11-15T20:31:29.462Z,4.23
2022-11-15T20:33:57.361Z,7.67
2022-11-15T20:36:25.429Z,10.40
2022-11-15T20:38:58.088Z,6.10
2022-11-15T20:41:26.372Z,4.67
2022-11-15T20:43:54.442Z,4.13
2022-11-15T20:46:22.319Z,4.67
2022-11-15T20:48:50.173Z,3.70
2022-11-15T20:51:19.696Z,4.57
2022-11-15T20:53:48.615Z,6.47
2022-11-15T20:56:21.105Z,6.63
2022-11-15T20:58:50.777Z,4.70
2022-11-15T21:01:23.202Z,4.80
2022-11-15T21:03:52.111Z,5.40
2022-11-15T21:06:20.977Z,7.20
2022-11-15T21:09:06.835Z,6.67
2022-11-15T21:11:54.034Z,7.73
2022-11-15T21:14:22.178Z,7.30
2022-11-15T21:16:50.068Z,5.50
2022-11-15T21:19:20.540Z,5.43
2022-11-15T21:21:50.579Z,6.00
2022-11-15T21:24:20.009Z,5.10
2022-11-15T21:26:49.265Z,5.30
2022-11-15T21:29:17.934Z,5.67
2022-11-15T21:31:46.000Z,15.00
2022-11-15T21:34:13.823Z,8.60
2022-11-15T21:36:41.751Z,8.30
2022-11-15T21:39:09.846Z,14.17
2022-11-15T21:41:40.798Z,12.33
2022-11-15T21:44:10.118Z,11.03
2022-11-15T21:46:38.104Z,7.87
2022-11-15T21:49:06.760Z,5.87
2022-11-15T21:51:35.126Z,6.13
2022-11-15T21:54:03.482Z,5.60
2022-11-15T21:56:32.305Z,5.43
2022-11-15T21:59:00.424Z,4.60
2022-11-15T22:01:47.300Z,5.10
2022-11-15T22:04:15.698Z,5.00
2022-11-15T22:06:43.539Z,4.67
2022-11-15T22:09:11.640Z,5.03
2022-11-15T22:11:39.497Z,4.73
2022-11-15T22:14:07.537Z,4.67
2022-11-15T22:16:37.648Z,4.07
2022-11-15T22:19:05.835Z,3.60
2022-11-15T22:21:33.914Z,4.27
2022-11-15T22:24:02.152Z,4.57
2022-11-15T22:26:30.205Z,5.23
2022-11-15T22:28:58.246Z,5.23
2022-11-15T22:31:26.217Z,5.47
2022-11-15T22:33:55.574Z,5.37
2022-11-15T22:36:27.199Z,6.20
2022-11-15T22:38:58.441Z,6.07
2022-11-15T22:41:26.552Z,5.03
2022-11-15T22:43:54.601Z,5.53
2022-11-15T22:46:22.678Z,5.07
2022-11-15T22:48:50.646Z,5.60
2022-11-15T22:51:20.083Z,4.90
2022-11-15T22:53:48.353Z,5.13
2022-11-15T22:56:20.266Z,5.77
2022-11-15T22:58:48.503Z,6.80
2022-11-15T23:01:21.752Z,5.53
2022-11-15T23:03:49.897Z,5.83
2022-11-15T23:06:19.318Z,6.23
2022-11-15T23:08:47.352Z,6.87
2022-11-15T23:11:32.850Z,6.30
2022-11-15T23:14:00.851Z,6.73
2022-11-15T23:16:34.522Z,5.90
2022-11-15T23:19:05.034Z,5.40
2022-11-15T23:21:53.162Z,5.30
2022-11-15T23:24:22.287Z,5.70
2022-11-15T23:26:52.115Z,5.43
2022-11-15T23:29:21.672Z,5.40
2022-11-15T23:32:07.214Z,5.20
2022-11-15T23:34:38.976Z,5.03
2022-11-15T23:37:09.426Z,4.97
2022-11-15T23:39:37.539Z,5.03
2022-11-15T23:42:09.008Z,5.00
2022-11-15T23:44:37.867Z,5.17
2022-11-15T23:47:05.887Z,4.37
2022-11-15T23:49:33.875Z,4.13
2022-11-15T23:52:01.866Z,4.20
2022-11-15T23:54:31.757Z,4.63
2022-11-15T23:56:59.831Z,4.23
2022-11-15T23:59:27.845Z,3.63
